createdAt,value
2023-05-09T00:00:54.622Z,0.00
2023-05-09T00:01:54.675Z,0.00
2023-05-09T00:02:54.655Z,0.00
2023-05-09T00:03:54.577Z,0.00
2023-05-09T00:04:54.590Z,0.00
2023-05-09T00:05:54.554Z,0.00
2023-05-09T00:06:54.588Z,0.00
2023-05-09T00:07:54.523Z,0.00
2023-05-09T00:08:54.508Z,0.00
2023-05-09T00:09:54.513Z,0.00
2023-05-09T00:10:54.559Z,0.00
2023-05-09T00:11:54.489Z,0.00
2023-05-09T00:12:54.506Z,0.00
2023-05-09T00:13:54.459Z,0.00
2023-05-09T00:14:54.458Z,0.00
2023-05-09T00:15:54.495Z,0.00
2023-05-09T00:16:54.510Z,0.00
2023-05-09T00:17:54.466Z,0.00
2023-05-09T00:18:54.422Z,0.00
2023-05-09T00:19:54.388Z,0.00
2023-05-09T00:20:54.435Z,0.00
2023-05-09T00:21:54.367Z,0.00
2023-05-09T00:22:54.373Z,0.00
2023-05-09T00:23:54.355Z,0.00
2023-05-09T00:24:54.420Z,0.00
2023-05-09T00:25:54.371Z,0.00
2023-05-09T00:26:54.313Z,0.00
2023-05-09T00:27:54.297Z,0.00
2023-05-09T00:28:54.332Z,0.00
2023-05-09T00:29:54.325Z,0.00
2023-05-09T00:30:54.284Z,0.00
2023-05-09T00:31:54.304Z,0.00
2023-05-09T00:32:54.280Z,0.00
2023-05-09T00:33:54.235Z,0.00
2023-05-09T00:34:54.282Z,0.00
2023-05-09T00:35:54.212Z,0.00
2023-05-09T00:36:54.215Z,0.00
2023-05-09T00:37:54.184Z,0.00
2023-05-09T00:38:54.266Z,0.00
2023-05-09T00:39:54.233Z,0.00
2023-05-09T00:40:54.168Z,0.00
2023-05-09T00:41:54.151Z,0.00
2023-05-09T00:42:54.146Z,0.00
2023-05-09T00:43:54.182Z,0.00
2023-05-09T00:44:54.148Z,0.00
2023-05-09T00:45:54.075Z,0.00
2023-05-09T00:46:54.047Z,0.00
2023-05-09T00:47:54.085Z,0.00
2023-05-09T00:48:54.060Z,0.00
2023-05-09T00:49:54.007Z,0.00
2023-05-09T00:50:54.030Z,0.00
2023-05-09T00:51:53.968Z,0.00
2023-05-09T00:52:53.977Z,0.00
2023-05-09T00:53:53.995Z,0.00
2023-05-09T00:54:53.959Z,0.00
2023-05-09T00:55:53.946Z,0.00
2023-05-09T00:56:53.923Z,0.00
2023-05-09T00:57:53.962Z,0.00
2023-05-09T00:58:53.932Z,0.00
2023-05-09T00:59:53.903Z,0.00
2023-05-09T01:00:53.874Z,0.00
2023-05-09T01:01:53.905Z,0.00
2023-05-09T01:02:54.047Z,0.00
2023-05-09T01:03:53.868Z,0.00
2023-05-09T01:04:53.836Z,0.00
2023-05-09T01:05:53.819Z,0.00
2023-05-09T01:06:53.814Z,0.00
2023-05-09T01:07:53.844Z,0.00
2023-05-09T01:08:53.782Z,0.00
2023-05-09T01:09:53.771Z,0.00
2023-05-09T01:10:53.783Z,0.00
2023-05-09T01:11:53.774Z,0.00
2023-05-09T01:12:53.804Z,0.00
2023-05-09T01:13:53.730Z,0.00
2023-05-09T01:14:53.726Z,0.00
2023-05-09T01:15:53.767Z,0.00
2023-05-09T01:16:53.719Z,0.00
2023-05-09T01:17:53.744Z,0.00
2023-05-09T01:18:53.679Z,0.00
2023-05-09T01:19:53.665Z,0.00
2023-05-09T01:20:53.643Z,0.00
2023-05-09T01:21:53.680Z,0.00
2023-05-09T01:22:53.629Z,0.00
2023-05-09T01:23:53.601Z,0.00
2023-05-09T01:24:53.600Z,0.00
2023-05-09T01:25:53.630Z,0.00
2023-05-09T01:26:53.617Z,0.00
2023-05-09T01:27:53.592Z,0.00
2023-05-09T01:28:53.574Z,0.00
2023-05-09T01:29:53.535Z,0.00
2023-05-09T01:30:53.580Z,0.00
2023-05-09T01:31:53.530Z,0.00
2023-05-09T01:32:53.549Z,0.00
2023-05-09T01:33:53.493Z,0.00
2023-05-09T01:34:53.521Z,0.00
2023-05-09T01:35:53.516Z,0.00
2023-05-09T01:36:53.462Z,0.00
2023-05-09T01:37:53.471Z,0.00
2023-05-09T01:38:53.447Z,0.00
2023-05-09T01:39:53.474Z,0.00
2023-05-09T01:40:53.433Z,0.00
2023-05-09T01:41:53.429Z,0.00
2023-05-09T01:42:53.395Z,0.00
2023-05-09T01:43:53.419Z,0.00
2023-05-09T01:44:53.419Z,0.00
2023-05-09T01:45:53.356Z,0.00
2023-05-09T01:46:53.464Z,0.00
2023-05-09T01:47:53.374Z,0.00
2023-05-09T01:48:53.322Z,0.00
2023-05-09T01:49:53.355Z,0.00
2023-05-09T01:50:53.320Z,0.00
2023-05-09T01:51:53.318Z,0.00
2023-05-09T01:52:53.322Z,0.00
2023-05-09T01:53:53.322Z,0.00
2023-05-09T01:54:53.318Z,0.00
2023-05-09T01:55:53.250Z,0.00
2023-05-09T01:56:53.259Z,0.00
2023-05-09T01:57:53.241Z,0.00
2023-05-09T01:58:53.268Z,0.00
2023-05-09T01:59:53.210Z,0.00
2023-05-09T02:00:53.226Z,0.00
2023-05-09T02:01:53.201Z,0.00
2023-05-09T02:02:53.425Z,0.00
2023-05-09T02:03:53.200Z,0.00
2023-05-09T02:04:53.148Z,0.00
2023-05-09T02:05:53.179Z,0.00
2023-05-09T02:06:53.129Z,0.00
2023-05-09T02:07:53.149Z,0.00
2023-05-09T02:08:53.160Z,0.00
2023-05-09T02:09:53.105Z,0.00
2023-05-09T02:10:53.085Z,0.00
2023-05-09T02:11:53.079Z,0.00
2023-05-09T02:12:53.154Z,0.00
2023-05-09T02:13:53.047Z,0.00
2023-05-09T02:14:53.028Z,0.00
2023-05-09T02:15:53.044Z,0.00
2023-05-09T02:16:53.036Z,0.00
2023-05-09T02:17:53.089Z,0.00
2023-05-09T02:18:53.014Z,0.00
2023-05-09T02:19:52.984Z,0.00
2023-05-09T02:20:53.000Z,0.00
2023-05-09T02:21:52.964Z,0.00
2023-05-09T02:22:52.983Z,0.00
2023-05-09T02:23:52.943Z,0.00
2023-05-09T02:24:52.960Z,0.00
2023-05-09T02:25:52.898Z,0.00
2023-05-09T02:26:52.934Z,0.00
2023-05-09T02:27:52.930Z,0.00
2023-05-09T02:28:52.885Z,0.00
2023-05-09T02:29:52.871Z,0.00
2023-05-09T02:30:52.861Z,0.00
2023-05-09T02:31:52.916Z,0.00
2023-05-09T02:32:52.875Z,0.00
2023-05-09T02:33:52.822Z,0.00
2023-05-09T02:34:52.819Z,0.00
2023-05-09T02:35:52.840Z,0.00
2023-05-09T02:36:52.839Z,0.00
2023-05-09T02:37:52.770Z,0.00
2023-05-09T02:38:52.770Z,4.00
2023-05-09T02:39:52.769Z,4.00
2023-05-09T02:40:52.818Z,0.00
2023-05-09T02:41:52.744Z,0.00
2023-05-09T02:42:52.727Z,4.00
2023-05-09T02:43:52.711Z,0.00
2023-05-09T02:44:52.710Z,4.00
2023-05-09T02:45:52.817Z,8.00
2023-05-09T02:46:52.671Z,4.00
2023-05-09T02:47:52.717Z,4.00
2023-05-09T02:48:52.660Z,8.00
2023-05-09T02:49:52.676Z,8.00
2023-05-09T02:50:52.709Z,8.00
2023-05-09T02:51:52.625Z,12.00
2023-05-09T02:52:52.617Z,16.00
2023-05-09T02:53:52.607Z,16.00
2023-05-09T02:54:52.637Z,16.00
2023-05-09T02:55:52.565Z,20.00
2023-05-09T02:56:52.559Z,20.00
2023-05-09T02:58:01.898Z,28.00
2023-05-09T02:58:53.540Z,32.00
2023-05-09T02:59:52.566Z,32.00
2023-05-09T03:00:52.521Z,40.00
2023-05-09T03:01:52.581Z,44.00
2023-05-09T03:02:52.550Z,52.00
2023-05-09T03:03:52.540Z,60.00
2023-05-09T03:04:52.506Z,68.00
2023-05-09T03:05:52.464Z,76.00
2023-05-09T03:06:52.469Z,88.00
2023-05-09T03:07:52.433Z,100.00
2023-05-09T03:08:52.465Z,112.00
2023-05-09T03:09:52.462Z,128.00
2023-05-09T03:10:52.395Z,144.00
2023-05-09T03:11:52.425Z,160.00
2023-05-09T03:12:52.430Z,180.00
2023-05-09T03:13:52.410Z,196.00
2023-05-09T03:14:52.362Z,220.00
2023-05-09T03:15:52.400Z,244.00
2023-05-09T03:16:52.338Z,268.00
2023-05-09T03:17:52.372Z,296.00
2023-05-09T03:18:52.358Z,324.00
2023-05-09T03:19:52.325Z,348.00
2023-05-09T03:20:52.295Z,380.00
2023-05-09T03:21:52.284Z,412.00
2023-05-09T03:22:52.286Z,444.00
2023-05-09T03:23:52.292Z,484.00
2023-05-09T03:24:52.246Z,524.00
2023-05-09T03:25:52.248Z,560.00
2023-05-09T03:26:52.205Z,600.00
2023-05-09T03:27:52.370Z,640.00
2023-05-09T03:28:52.181Z,684.00
2023-05-09T03:29:52.191Z,732.00
2023-05-09T03:30:52.174Z,776.00
2023-05-09T03:31:52.194Z,824.00
2023-05-09T03:32:52.256Z,872.00
2023-05-09T03:33:52.167Z,920.00
2023-05-09T03:34:52.116Z,968.00
2023-05-09T03:35:52.132Z,1020.00
2023-05-09T03:36:52.138Z,1072.00
2023-05-09T03:37:52.146Z,1128.00
2023-05-09T03:38:52.093Z,1180.00
2023-05-09T03:39:52.088Z,1244.00
2023-05-09T03:40:52.061Z,1292.00
2023-05-09T03:41:52.092Z,1344.00
2023-05-09T03:42:52.044Z,1396.00
2023-05-09T03:43:52.031Z,1464.00
2023-05-09T03:44:52.011Z,1532.00
2023-05-09T03:45:52.011Z,1572.00
2023-05-09T03:46:52.058Z,1648.00
2023-05-09T03:47:52.000Z,1688.00
2023-05-09T03:48:51.950Z,1748.00
2023-05-09T03:49:51.952Z,1776.00
2023-05-09T03:50:51.988Z,1824.00
2023-05-09T03:51:51.960Z,1880.00
2023-05-09T03:52:51.920Z,1944.00
2023-05-09T03:53:51.925Z,1992.00
2023-05-09T03:54:51.905Z,2056.00
2023-05-09T03:55:51.931Z,2132.00
2023-05-09T03:56:51.878Z,2148.00
2023-05-09T03:57:51.876Z,2196.00
2023-05-09T03:58:51.882Z,2240.00
2023-05-09T03:59:51.841Z,2300.00
2023-05-09T04:00:51.874Z,2348.00
2023-05-09T04:01:51.859Z,2392.00
2023-05-09T04:02:51.845Z,2440.00
2023-05-09T04:03:51.862Z,2484.00
2023-05-09T04:04:51.793Z,2536.00
2023-05-09T04:05:51.811Z,2584.00
2023-05-09T04:06:51.793Z,2652.00
2023-05-09T04:07:51.750Z,2704.00
2023-05-09T04:08:51.778Z,2744.00
2023-05-09T04:09:51.769Z,2800.00
2023-05-09T04:10:51.762Z,3084.00
2023-05-09T04:11:51.723Z,3116.00
2023-05-09T04:12:51.748Z,3068.00
2023-05-09T04:13:51.700Z,3296.00
2023-05-09T04:14:51.727Z,4256.00
2023-05-09T04:15:51.682Z,4412.00
2023-05-09T04:16:51.744Z,4964.00
2023-05-09T04:17:51.682Z,5096.00
2023-05-09T04:18:51.629Z,5156.00
2023-05-09T04:19:51.687Z,5232.00
2023-05-09T04:20:51.617Z,5376.00
2023-05-09T04:21:51.617Z,5540.00
2023-05-09T04:22:51.578Z,5660.00
2023-05-09T04:23:51.632Z,5784.00
2023-05-09T04:24:51.607Z,5944.00
2023-05-09T04:25:51.680Z,6060.00
2023-05-09T04:26:51.548Z,6224.00
2023-05-09T04:27:51.527Z,6412.00
2023-05-09T04:28:51.562Z,6592.00
2023-05-09T04:29:51.501Z,6680.00
2023-05-09T04:30:51.610Z,6748.00
2023-05-09T04:31:51.618Z,7068.00
2023-05-09T04:32:51.494Z,7352.00
2023-05-09T04:33:51.505Z,7616.00
2023-05-09T04:34:51.469Z,7884.00
2023-05-09T04:35:51.451Z,8128.00
2023-05-09T04:36:51.433Z,8224.00
2023-05-09T04:37:51.432Z,8112.00
2023-05-09T04:38:51.437Z,8008.00
2023-05-09T04:39:51.405Z,8056.00
2023-05-09T04:40:51.379Z,8200.00
2023-05-09T04:41:51.390Z,8304.00
2023-05-09T04:42:51.405Z,8384.00
2023-05-09T04:43:51.387Z,8444.00
2023-05-09T04:44:51.338Z,8492.00
2023-05-09T04:45:51.377Z,8600.00
2023-05-09T04:46:51.345Z,8608.00
2023-05-09T04:47:51.414Z,8640.00
2023-05-09T04:48:51.272Z,8696.00
2023-05-09T04:49:51.301Z,8768.00
2023-05-09T04:50:51.287Z,8748.00
2023-05-09T04:51:51.274Z,8684.00
2023-05-09T04:52:51.294Z,8616.00
2023-05-09T04:53:51.377Z,8592.00
2023-05-09T04:54:51.220Z,8552.00
2023-05-09T04:55:51.207Z,8520.00
2023-05-09T04:56:51.265Z,8468.00
2023-05-09T04:57:51.231Z,8384.00
2023-05-09T04:58:51.180Z,8300.00
2023-05-09T04:59:51.173Z,8196.00
2023-05-09T05:00:51.155Z,8040.00
2023-05-09T05:01:51.248Z,7888.00
2023-05-09T05:02:51.190Z,7724.00
2023-05-09T05:03:51.137Z,7592.00
2023-05-09T05:04:51.360Z,7432.00
2023-05-09T05:05:51.218Z,7284.00
2023-05-09T05:06:51.133Z,7164.00
2023-05-09T05:07:51.091Z,7056.00
2023-05-09T05:08:51.087Z,6948.00
2023-05-09T05:09:51.074Z,6872.00
2023-05-09T05:10:51.085Z,6792.00
2023-05-09T05:12:00.790Z,6724.00
2023-05-09T05:12:52.030Z,6668.00
2023-05-09T05:13:51.045Z,6628.00
2023-05-09T05:14:51.014Z,6572.00
2023-05-09T05:15:51.051Z,6508.00
2023-05-09T05:16:51.003Z,6468.00
2023-05-09T05:17:51.058Z,6444.00
2023-05-09T05:18:50.970Z,6408.00
2023-05-09T05:19:51.015Z,6384.00
2023-05-09T05:20:50.971Z,6352.00
2023-05-09T05:21:50.935Z,6336.00
2023-05-09T05:22:50.962Z,6320.00
2023-05-09T05:23:50.929Z,6280.00
2023-05-09T05:24:50.957Z,6264.00
2023-05-09T05:25:50.907Z,6236.00
2023-05-09T05:26:50.863Z,6232.00
2023-05-09T05:27:50.893Z,6212.00
2023-05-09T05:28:50.827Z,6200.00
2023-05-09T05:29:50.865Z,6196.00
2023-05-09T05:30:50.824Z,6188.00
2023-05-09T05:31:50.929Z,6192.00
2023-05-09T05:32:50.916Z,6180.00
2023-05-09T05:33:50.804Z,6184.00
2023-05-09T05:34:50.820Z,6192.00
2023-05-09T05:35:50.773Z,6188.00
2023-05-09T05:36:50.782Z,6196.00
2023-05-09T05:37:50.767Z,6196.00
2023-05-09T05:38:50.862Z,6200.00
2023-05-09T05:39:50.978Z,6208.00
2023-05-09T05:40:50.738Z,6212.00
2023-05-09T05:41:50.720Z,6368.00
2023-05-09T05:42:50.709Z,6668.00
2023-05-09T05:43:52.822Z,6516.00
2023-05-09T05:44:50.677Z,6312.00
2023-05-09T05:45:50.696Z,6244.00
2023-05-09T05:46:50.629Z,6212.00
2023-05-09T05:47:50.660Z,6196.00
2023-05-09T05:48:50.648Z,6196.00
2023-05-09T05:49:50.615Z,6188.00
2023-05-09T05:50:50.602Z,6188.00
2023-05-09T05:51:50.596Z,6188.00
2023-05-09T05:52:50.625Z,6196.00
2023-05-09T05:53:50.606Z,6192.00
2023-05-09T05:54:50.546Z,6208.00
2023-05-09T05:55:50.612Z,6196.00
2023-05-09T05:56:50.507Z,6200.00
2023-05-09T05:57:50.560Z,6204.00
2023-05-09T05:58:50.492Z,6212.00
2023-05-09T05:59:50.504Z,6220.00
2023-05-09T06:00:50.483Z,6200.00
2023-05-09T06:01:50.525Z,6216.00
2023-05-09T06:02:50.529Z,6216.00
2023-05-09T06:03:50.550Z,6224.00
2023-05-09T06:04:50.452Z,6240.00
2023-05-09T06:05:50.427Z,6236.00
2023-05-09T06:06:50.434Z,6232.00
2023-05-09T06:07:50.426Z,6244.00
2023-05-09T06:08:50.392Z,6252.00
2023-05-09T06:09:50.373Z,6236.00
2023-05-09T06:10:50.394Z,6260.00
2023-05-09T06:11:50.388Z,6268.00
2023-05-09T06:12:50.405Z,6268.00
2023-05-09T06:13:50.339Z,6268.00
2023-05-09T06:14:50.312Z,6280.00
2023-05-09T06:15:50.324Z,6288.00
2023-05-09T06:16:50.415Z,6296.00
2023-05-09T06:17:50.380Z,6300.00
2023-05-09T06:18:50.301Z,6296.00
2023-05-09T06:19:50.273Z,6312.00
2023-05-09T06:20:50.300Z,6324.00
2023-05-09T06:21:50.300Z,6348.00
2023-05-09T06:22:50.222Z,6340.00
2023-05-09T06:24:04.331Z,6364.00
2023-05-09T06:24:51.226Z,6372.00
2023-05-09T06:25:50.218Z,6392.00
2023-05-09T06:26:50.166Z,6400.00
2023-05-09T06:27:50.194Z,6404.00
2023-05-09T06:28:50.175Z,6420.00
2023-05-09T06:29:50.194Z,6412.00
2023-05-09T06:30:50.196Z,6452.00
2023-05-09T06:31:50.159Z,6464.00
2023-05-09T06:32:50.134Z,6480.00
2023-05-09T06:33:50.139Z,6500.00
2023-05-09T06:34:50.160Z,6524.00
2023-05-09T06:35:50.124Z,6548.00
2023-05-09T06:36:50.082Z,6552.00
2023-05-09T06:37:50.097Z,6584.00
2023-05-09T06:38:50.078Z,6616.00
2023-05-09T06:39:50.097Z,6636.00
2023-05-09T06:40:50.067Z,6660.00
2023-05-09T06:41:50.024Z,6684.00
2023-05-09T06:42:50.041Z,6700.00
2023-05-09T06:43:50.130Z,6732.00
2023-05-09T06:44:50.055Z,6748.00
2023-05-09T06:45:50.033Z,6772.00
2023-05-09T06:46:49.960Z,6804.00
2023-05-09T06:47:49.963Z,6828.00
2023-05-09T06:48:50.021Z,6848.00
2023-05-09T06:49:49.983Z,6884.00
2023-05-09T06:50:49.924Z,6908.00
2023-05-09T06:51:49.902Z,6928.00
2023-05-09T06:52:49.901Z,6944.00
2023-05-09T06:53:49.909Z,6964.00
2023-05-09T06:54:49.865Z,6980.00
2023-05-09T06:55:49.847Z,7024.00
2023-05-09T06:56:49.860Z,7036.00
2023-05-09T06:57:49.850Z,7068.00
2023-05-09T06:58:49.884Z,7104.00
2023-05-09T06:59:49.819Z,7120.00
2023-05-09T07:00:49.795Z,7144.00
2023-05-09T07:01:49.924Z,7164.00
2023-05-09T07:02:49.857Z,7204.00
2023-05-09T07:03:49.829Z,7244.00
2023-05-09T07:04:49.780Z,7284.00
2023-05-09T07:05:49.750Z,7320.00
2023-05-09T07:06:49.753Z,7340.00
2023-05-09T07:07:49.774Z,7372.00
2023-05-09T07:08:49.763Z,7412.00
2023-05-09T07:09:52.991Z,7468.00
2023-05-09T07:10:50.698Z,7508.00
2023-05-09T07:11:49.693Z,7552.00
2023-05-09T07:12:49.724Z,7592.00
2023-05-09T07:13:49.680Z,7656.00
2023-05-09T07:14:49.680Z,7712.00
2023-05-09T07:15:49.679Z,7760.00
2023-05-09T07:16:49.747Z,7804.00
2023-05-09T07:17:49.684Z,7872.00
2023-05-09T07:18:49.628Z,7956.00
2023-05-09T07:19:49.581Z,8012.00
2023-05-09T07:20:49.622Z,8052.00
2023-05-09T07:21:49.558Z,8124.00
2023-05-09T07:22:49.626Z,8212.00
2023-05-09T07:23:49.538Z,8292.00
2023-05-09T07:24:49.540Z,8368.00
2023-05-09T07:25:49.533Z,8432.00
2023-05-09T07:26:49.508Z,8516.00
2023-05-09T07:27:49.528Z,8648.00
2023-05-09T07:28:49.496Z,8736.00
2023-05-09T07:29:49.474Z,8836.00
2023-05-09T07:30:49.479Z,8968.00
2023-05-09T07:31:49.534Z,9088.00
2023-05-09T07:32:49.580Z,9260.00
2023-05-09T07:33:49.442Z,9428.00
2023-05-09T07:34:49.425Z,9640.00
2023-05-09T07:35:49.418Z,9928.00
2023-05-09T07:36:49.565Z,10204.00
2023-05-09T07:37:49.424Z,10536.00
2023-05-09T07:38:49.425Z,11000.00
2023-05-09T07:39:49.348Z,11760.00
2023-05-09T07:40:49.384Z,12488.00
2023-05-09T07:41:49.400Z,13280.00
2023-05-09T07:42:49.326Z,14760.00
2023-05-09T07:43:49.313Z,16356.00
2023-05-09T07:44:49.324Z,18240.00
2023-05-09T07:45:49.357Z,20672.00
2023-05-09T07:46:49.356Z,22944.00
2023-05-09T07:47:49.291Z,25504.00
2023-05-09T07:48:49.303Z,28704.00
2023-05-09T07:49:49.235Z,32448.00
2023-05-09T07:50:49.285Z,35456.00
2023-05-09T07:51:49.262Z,36256.00
2023-05-09T07:52:49.216Z,37088.00
2023-05-09T07:53:49.198Z,37920.00
2023-05-09T07:54:49.217Z,38720.00
2023-05-09T07:55:49.244Z,39488.00
2023-05-09T07:56:49.183Z,40224.00
2023-05-09T07:57:49.163Z,41056.00
2023-05-09T07:58:49.168Z,42080.00
2023-05-09T07:59:49.173Z,42496.00
2023-05-09T08:00:49.169Z,42816.00
2023-05-09T08:01:49.103Z,43328.00
2023-05-09T08:02:49.191Z,43296.00
2023-05-09T08:03:49.118Z,43776.00
2023-05-09T08:04:49.283Z,43872.00
2023-05-09T08:05:49.114Z,44064.00
2023-05-09T08:06:49.076Z,44672.00
2023-05-09T08:07:49.048Z,44640.00
2023-05-09T08:08:49.047Z,45344.00
2023-05-09T08:09:49.093Z,46272.00
2023-05-09T08:10:49.030Z,48224.00
2023-05-09T08:11:49.003Z,49856.00
2023-05-09T08:12:49.110Z,49760.00
2023-05-09T08:13:48.991Z,48672.00
2023-05-09T08:14:49.018Z,49920.00
2023-05-09T08:15:49.006Z,50592.00
2023-05-09T08:16:48.958Z,50944.00
2023-05-09T08:17:49.014Z,50976.00
2023-05-09T08:18:48.960Z,50208.00
2023-05-09T08:19:48.966Z,51040.00
2023-05-09T08:20:48.906Z,52000.00
2023-05-09T08:21:48.884Z,52256.00
2023-05-09T08:22:48.868Z,52928.00
2023-05-09T08:23:48.950Z,53696.00
2023-05-09T08:24:48.899Z,54592.00
2023-05-09T08:25:48.853Z,55200.00
2023-05-09T08:26:48.859Z,54560.00
2023-05-09T08:27:49.768Z,53952.00
2023-05-09T08:28:48.879Z,52832.00
2023-05-09T08:29:48.842Z,53440.00
2023-05-09T08:30:48.788Z,54176.00
2023-05-09T08:31:48.927Z,55776.00
2023-05-09T08:32:48.814Z,55936.00
2023-05-09T08:33:48.818Z,55168.00
2023-05-09T08:34:48.785Z,55136.00
2023-05-09T08:35:48.737Z,56928.00
2023-05-09T08:36:48.734Z,58720.00
2023-05-09T08:37:48.750Z,58400.00
2023-05-09T08:38:48.742Z,58528.00
2023-05-09T08:39:48.687Z,58848.00
2023-05-09T08:40:48.661Z,59296.00
2023-05-09T08:41:48.663Z,59296.00
2023-05-09T08:42:48.702Z,59744.00
2023-05-09T08:43:48.648Z,61184.00
2023-05-09T08:44:48.641Z,62144.00
2023-05-09T08:45:48.636Z,61504.00
2023-05-09T08:46:48.731Z,62272.00
2023-05-09T08:47:48.635Z,62432.00
2023-05-09T08:48:48.577Z,62272.00
2023-05-09T08:49:48.562Z,62144.00
2023-05-09T08:50:48.580Z,65472.00
2023-05-09T08:51:48.614Z,69984.00
2023-05-09T08:52:48.570Z,68512.00
2023-05-09T08:53:48.549Z,69568.00
2023-05-09T08:54:48.547Z,67744.00
2023-05-09T08:55:48.540Z,68480.00
2023-05-09T08:56:48.557Z,72576.00
2023-05-09T08:57:48.484Z,74496.00
2023-05-09T08:58:48.475Z,76160.00
2023-05-09T08:59:48.458Z,78208.00
2023-05-09T09:00:48.520Z,83200.00
2023-05-09T09:01:48.598Z,88544.00
2023-05-09T09:02:48.468Z,91584.00
2023-05-09T09:03:48.417Z,94432.00
2023-05-09T09:04:48.508Z,92864.00
2023-05-09T09:05:48.545Z,89632.00
2023-05-09T09:06:48.468Z,90496.00
2023-05-09T09:07:48.387Z,86368.00
2023-05-09T09:08:48.382Z,87936.00
2023-05-09T09:09:48.401Z,94432.00
2023-05-09T09:10:48.468Z,90400.00
2023-05-09T09:11:48.364Z,86560.00
2023-05-09T09:12:50.073Z,82336.00
2023-05-09T09:13:48.315Z,79840.00
2023-05-09T09:14:48.333Z,81600.00
2023-05-09T09:15:48.353Z,85376.00
2023-05-09T09:16:48.389Z,82560.00
2023-05-09T09:17:48.285Z,80192.00
2023-05-09T09:18:48.260Z,79168.00
2023-05-09T09:19:48.270Z,78112.00
2023-05-09T09:20:48.289Z,75616.00
2023-05-09T09:21:48.270Z,76768.00
2023-05-09T09:22:48.234Z,76960.00
2023-05-09T09:23:48.261Z,75872.00
2023-05-09T09:24:48.254Z,79488.00
2023-05-09T09:25:48.299Z,78848.00
2023-05-09T09:26:48.229Z,74176.00
2023-05-09T09:27:48.173Z,70240.00
2023-05-09T09:28:48.181Z,67904.00
2023-05-09T09:29:48.193Z,70720.00
2023-05-09T09:30:48.152Z,72224.00
2023-05-09T09:31:48.250Z,69568.00
2023-05-09T09:32:48.161Z,71264.00
2023-05-09T09:33:48.133Z,71360.00
2023-05-09T09:34:48.136Z,68800.00
2023-05-09T09:35:48.093Z,67776.00
2023-05-09T09:36:48.096Z,65824.00
2023-05-09T09:37:48.052Z,66944.00
2023-05-09T09:38:48.111Z,66880.00
2023-05-09T09:39:48.048Z,65728.00
2023-05-09T09:40:48.057Z,65600.00
2023-05-09T09:41:47.999Z,65024.00
2023-05-09T09:42:48.037Z,66752.00
2023-05-09T09:43:48.065Z,66688.00
2023-05-09T09:44:48.028Z,67328.00
2023-05-09T09:45:48.018Z,67104.00
2023-05-09T09:46:47.988Z,66528.00
2023-05-09T09:47:48.058Z,65920.00
2023-05-09T09:48:48.029Z,66848.00
2023-05-09T09:49:47.969Z,67200.00
2023-05-09T09:50:47.938Z,67456.00
2023-05-09T09:51:47.902Z,66624.00
2023-05-09T09:52:47.951Z,65664.00
2023-05-09T09:53:47.875Z,65600.00
2023-05-09T09:54:47.895Z,66368.00
2023-05-09T09:55:47.883Z,67808.00
2023-05-09T09:56:47.886Z,68896.00
2023-05-09T09:57:47.887Z,68512.00
2023-05-09T09:58:47.841Z,69312.00
2023-05-09T09:59:47.848Z,68960.00
2023-05-09T10:00:47.810Z,68992.00
2023-05-09T10:01:47.900Z,68032.00
2023-05-09T10:02:47.874Z,67616.00
2023-05-09T10:03:47.795Z,67872.00
2023-05-09T10:04:47.754Z,68672.00
2023-05-09T10:05:47.749Z,69184.00
2023-05-09T10:06:47.786Z,69152.00
2023-05-09T10:07:47.753Z,68480.00
2023-05-09T10:08:47.793Z,68416.00
2023-05-09T10:09:47.716Z,67872.00
2023-05-09T10:10:47.736Z,68096.00
2023-05-09T10:11:47.737Z,68960.00
2023-05-09T10:12:47.723Z,68160.00
2023-05-09T10:13:47.660Z,68288.00
2023-05-09T10:14:47.630Z,68736.00
2023-05-09T10:15:53.613Z,69184.00
2023-05-09T10:16:48.765Z,67648.00
2023-05-09T10:17:47.801Z,68192.00
2023-05-09T10:18:47.862Z,69184.00
2023-05-09T10:19:47.601Z,68544.00
2023-05-09T10:20:47.630Z,68512.00
2023-05-09T10:21:47.604Z,68160.00
2023-05-09T10:22:47.579Z,68384.00
2023-05-09T10:23:47.554Z,69888.00
2023-05-09T10:24:47.592Z,72992.00
2023-05-09T10:25:47.548Z,77152.00
2023-05-09T10:26:47.525Z,79968.00
2023-05-09T10:27:47.534Z,79904.00
2023-05-09T10:28:47.496Z,77184.00
2023-05-09T10:29:47.518Z,76576.00
2023-05-09T10:30:47.534Z,78880.00
2023-05-09T10:31:47.602Z,79072.00
2023-05-09T10:32:47.496Z,75424.00
2023-05-09T10:33:47.513Z,74720.00
2023-05-09T10:34:47.506Z,73920.00
2023-05-09T10:35:47.447Z,74240.00
2023-05-09T10:36:47.428Z,75104.00
2023-05-09T10:37:47.428Z,76288.00
2023-05-09T10:38:47.424Z,84672.00
2023-05-09T10:39:47.405Z,79200.00
2023-05-09T10:40:47.386Z,79520.00
2023-05-09T10:41:47.364Z,81376.00
2023-05-09T10:42:47.345Z,81984.00
2023-05-09T10:43:47.393Z,82240.00
2023-05-09T10:44:47.345Z,83776.00
2023-05-09T10:45:47.293Z,84352.00
2023-05-09T10:46:47.426Z,86048.00
2023-05-09T10:47:47.316Z,88608.00
2023-05-09T10:48:47.325Z,90592.00
2023-05-09T10:49:47.331Z,90624.00
2023-05-09T10:50:47.282Z,91008.00
2023-05-09T10:51:47.243Z,90752.00
2023-05-09T10:52:47.255Z,92352.00
2023-05-09T10:53:47.319Z,94304.00
2023-05-09T10:54:47.226Z,94368.00
2023-05-09T10:55:47.215Z,95616.00
2023-05-09T10:56:47.211Z,98176.00
2023-05-09T10:57:47.215Z,101152.00
2023-05-09T10:58:47.243Z,105376.00
2023-05-09T10:59:47.200Z,106560.00
2023-05-09T11:00:47.145Z,106912.00
2023-05-09T11:01:47.183Z,105696.00
2023-05-09T11:02:47.267Z,103744.00
2023-05-09T11:03:47.313Z,103104.00
2023-05-09T11:04:47.128Z,106752.00
2023-05-09T11:05:47.109Z,107936.00
2023-05-09T11:06:47.102Z,109312.00
2023-05-09T11:07:47.160Z,112608.00
2023-05-09T11:08:47.060Z,118688.00
2023-05-09T11:09:47.056Z,130592.00
2023-05-09T11:10:47.089Z,144928.00
2023-05-09T11:11:47.039Z,158336.00
2023-05-09T11:12:47.052Z,182336.00
2023-05-09T11:13:47.057Z,207968.00
2023-05-09T11:14:47.002Z,218848.00
2023-05-09T11:15:46.999Z,208864.00
2023-05-09T11:16:47.036Z,183840.00
2023-05-09T11:17:47.122Z,164128.00
2023-05-09T11:18:46.959Z,140512.00
2023-05-09T11:19:46.970Z,123616.00
2023-05-09T11:20:46.961Z,112096.00
2023-05-09T11:21:46.921Z,108640.00
2023-05-09T11:22:46.943Z,107520.00
2023-05-09T11:23:47.005Z,107360.00
2023-05-09T11:24:46.910Z,106528.00
2023-05-09T11:25:46.870Z,106752.00
2023-05-09T11:26:46.964Z,105760.00
2023-05-09T11:27:46.872Z,106592.00
2023-05-09T11:28:46.851Z,106176.00
2023-05-09T11:29:46.909Z,105248.00
2023-05-09T11:30:46.823Z,104480.00
2023-05-09T11:31:46.880Z,104192.00
2023-05-09T11:32:46.844Z,103072.00
2023-05-09T11:33:46.763Z,103808.00
2023-05-09T11:34:46.805Z,102400.00
2023-05-09T11:35:46.777Z,100864.00
2023-05-09T11:36:46.772Z,99744.00
2023-05-09T11:37:46.768Z,99424.00
2023-05-09T11:38:46.762Z,98976.00
2023-05-09T11:39:46.763Z,96928.00
2023-05-09T11:40:46.759Z,94944.00
2023-05-09T11:41:46.743Z,92960.00
2023-05-09T11:42:46.673Z,92032.00
2023-05-09T11:43:46.687Z,91840.00
2023-05-09T11:44:46.723Z,91008.00
2023-05-09T11:45:46.747Z,90784.00
2023-05-09T11:46:46.684Z,91424.00
2023-05-09T11:47:46.685Z,91904.00
2023-05-09T11:48:46.630Z,92000.00
2023-05-09T11:49:46.630Z,91072.00
2023-05-09T11:50:46.648Z,90304.00
2023-05-09T11:51:46.608Z,91232.00
2023-05-09T11:52:46.596Z,91424.00
2023-05-09T11:53:46.589Z,92160.00
2023-05-09T11:54:46.611Z,93600.00
2023-05-09T11:55:46.642Z,95488.00
2023-05-09T11:56:46.586Z,96320.00
2023-05-09T11:57:46.560Z,97728.00
2023-05-09T11:58:46.505Z,99328.00
2023-05-09T11:59:46.646Z,100832.00
2023-05-09T12:00:46.527Z,101856.00
2023-05-09T12:01:46.499Z,101888.00
2023-05-09T12:02:46.555Z,101760.00
2023-05-09T12:03:46.595Z,102560.00
2023-05-09T12:04:46.515Z,104000.00
2023-05-09T12:05:46.464Z,103904.00
2023-05-09T12:06:46.430Z,103488.00
2023-05-09T12:07:46.494Z,103840.00
2023-05-09T12:08:46.495Z,103808.00
2023-05-09T12:09:46.440Z,103872.00
2023-05-09T12:10:46.398Z,103232.00
2023-05-09T12:11:47.815Z,102816.00
2023-05-09T12:12:46.405Z,104928.00
2023-05-09T12:13:46.414Z,107616.00